Details of LTEs during March - 2010

1 2 3 4 5 6 7 8 9
Sl No Unit Tender No. Tender Date Last date & time of bid submission TE Opening date & time Tender Description EMD (in Rs.) Bid Type
1 OFAJ RS2290489 31/03/2010 2010-05-04 14:00 2010-05-04 15:00 CHOKE COIL FOR 125W HPMV LAMP   0.00 Single
2 OFAJ RS2290490 31/03/2010 2010-05-11 14:00 2010-05-11 15:00 CABLE LUGS 150 SQ.MM., CABLE LUGS 185 SQ.MM., CABLE LUGS.   0.00 Single
3 OFAJ RS2290491 31/03/2010 2010-05-04 14:00 2010-05-04 15:00 CABLE FLEX.PVC INS.4 CORE 1.5 SQ.MM, CABLE FLEX.PVC INS.4CORE 0.50SQ.MM   0.00 Single
4 OFAJ RS2290492 31/03/2010 2010-05-04 14:00 2010-05-04 15:00 FUSE LINK HRC 500V, 630A, LINK FUSE 500V RATING 425A   0.00 Single
5 OFAJ RS2290493 31/03/2010 2010-05-04 14:00 2010-05-04 15:00 METAL HALIDE LAMP   0.00 Single
6 OFAJ RS2290494 31/03/2010 2010-05-11 14:00 2010-05-11 15:00 SP. FOR ELECT.PUSH BUTTON TELEPHONE   0.00 Single
7 OFAJ RS2290495 31/03/2010 2010-05-11 14:00 2010-05-11 15:00 ENERGY METER 3PH,4WIRE,440 VOLTS.   0.00 Single
8 OFAJ RS2290496 31/03/2010 2010-05-04 14:00 2010-05-04 15:00 PERIOD.MAINT./SERVIC.;INV/B/BS/94., PERIOD.MAINT./SERVIC.;INV/DC/B/12/1, PERIODICAL MAINT./SERVICING OJ/1230, PERIODICAL MAINT./SERVICING;OJ/1304, PERIODICAL MAINT./SERVICING;OJ/1606, PERIODICAL MAINT   0.00 Single
9 OFAJ RS2290498 31/03/2010 2010-05-04 14:00 2010-05-04 15:00 MOTOR 7.5 KW 1435 RPM   0.00 Single
10 OFAJ RS2290499 31/03/2010 2010-05-11 14:00 2010-05-11 15:00 INDEF ELECTRICALLY HOIST 250 KG.   0.00 Single
11 OFAJ RS2290504 31/03/2010 2010-05-04 14:00 2010-05-04 15:00 HALF YRLY.SERVICING OF OJ/4692, PERIOD.SERVIC.HARD.TEST.M/C,OJ/1673, PERIOD.SERVIC.HARD.TEST.M/C,OJ/1674, PERIOD.SERVIC.HARD.TEST.M/C,OJ/1676, PERIOD.SERVIC.HARD.TESTING;OJ/1748, PERIOD.SERVIC.HARD.TE   0.00 Single
12 OFAJ SS2290202 31/03/2010 2010-04-30 14:00 2010-04-30 15:00 STEEL BILLET AS PER OFAJ DRG.F-531B   0.00 Single
13 OFDR 2009000900 31/03/2010 2010-05-03 14:30 2010-05-03 15:00 1. SINGLE SPLIT TYPE AIR CONDITIONER   2.00 Single
14 OFDR 2009000903 31/03/2010 2010-05-06 14:30 2010-05-06 15:00 1. LOADING & TRANSPORTATION TO PULGAON   0.00 Single
15 OFDR 2009000904 31/03/2010 2010-05-06 14:30 2010-05-06 15:00 1. TRANSPORTATION AMMN OFDR TO CAD PUL   0.00 Single
16 HVF 0209506 30/03/2010 2010-04-22 12:00 2010-04-22 15:00 SPRING , etc.   0.00 Single
17 HVF 0409601 30/03/2010 2010-04-21 12:00 2010-04-21 15:00 RING , etc.   0.00 Single
18 HVF 0409602 30/03/2010 2010-04-21 12:00 2010-04-21 15:00 END CAP ASSY , etc.   0.00 Single
19 HVF 0509796 30/03/2010 2010-04-06 12:00 2010-04-06 15:00 HIRING OF TWO NON A/C AMBULANCES FOR ONE , etc.   0.00 Single
20 HVF 0509802 30/03/2010 2010-04-27 12:00 2010-04-27 15:00 IMMERSION WATER HEATER FOR GEYSER 2 KW , etc.   0.00 Single
21 HVF 0107303 29/03/2010 2010-04-22 12:00 2010-04-22 15:00 LOCK WASHER , etc.   0.00 Single
22 HVF 0209487 29/03/2010 2010-04-29 12:00 2010-04-29 15:00 BUFFER , etc.   0.00 Single
23 HVF 0209488 29/03/2010 2010-04-29 12:00 2010-04-29 15:00 GASKET , etc.   0.00 Single
24 HVF 0209489 29/03/2010 2010-04-29 12:00 2010-04-29 15:00 RING , etc.   0.00 Single
25 HVF 0209490 29/03/2010 2010-04-29 12:00 2010-04-29 15:00 BOLT , etc.   0.00 Single
26 HVF 0209491 29/03/2010 2010-04-29 12:00 2010-04-29 15:00 BOLT , etc.   0.00 Single
27 HVF 0209492 29/03/2010 2010-04-29 12:00 2010-04-29 15:00 RING PACKING , etc.   0.00 Single
28 HVF 0209493 29/03/2010 2010-04-29 12:00 2010-04-29 15:00 GASKET , etc.   0.00 Single
29 HVF 0209495 29/03/2010 2010-04-29 12:00 2010-04-29 15:00 GASKET , etc.   0.00 Single
30 HVF 0209496 29/03/2010 2010-04-29 12:00 2010-04-29 15:00 GLAND , etc.   0.00 Single
31 HVF 0209497 29/03/2010 2010-05-27 12:00 2010-05-27 15:00 HOSE 2T 25-15 , etc.   0.00 Single
32 HVF 0209498 29/03/2010 2010-04-29 12:00 2010-04-29 15:00 BOLT , etc.   0.00 Single
33 HVF 0209499 29/03/2010 2010-04-29 12:00 2010-04-29 15:00 HOSE , etc.   0.00 Single
34 HVF 0209500 29/03/2010 2010-04-29 12:00 2010-04-29 15:00 SPRING , etc.   0.00 Single
35 HVF 0209501 29/03/2010 2010-04-29 12:00 2010-04-29 15:00 WASHER , etc.   0.00 Single
36 HVF 0209503 29/03/2010 2010-04-29 12:00 2010-04-29 15:00 SPRING WASHER , etc.   0.00 Single
37 HVF 0209504 29/03/2010 2010-05-06 12:00 2010-05-06 15:00 WASHER , etc.   0.00 Single
38 HVF 0409595 29/03/2010 2010-04-21 12:00 2010-04-21 15:00 OIL COOLER , etc.   0.00 Single
39 HVF 0409596 29/03/2010 2010-04-21 12:00 2010-04-21 15:00 SEAL & SPRING SET , etc.   0.00 Single
40 HVF 0409597 29/03/2010 2010-04-21 12:00 2010-04-21 15:00 WASHER , etc.   0.00 Single
41 HVF 0409598 29/03/2010 2010-04-21 12:00 2010-04-21 15:00 BEARING 970711 , etc.   0.00 Single
42 HVF 0509793 29/03/2010 2010-03-30 12:00 2010-03-30 15:00 HIRING OF 20' OPEN TRUCK FLATE BODY , etc.   0.00 Single
43 HVF 0509794 29/03/2010 2010-04-20 12:00 2010-04-20 15:00 PRINTING AND BINDING OF SERVICE LOG BOOK , etc.   0.00 Single
44 HVF 0509795 29/03/2010 2010-04-27 12:00 2010-04-27 15:00 SUN MICA SHEET 3 MM THICKNESS , etc.   0.00 Single
45 OFAJ IS2290441 29/03/2010 2010-03-28 14:00 2010-03-28 15:00 VERTICAL BLINDS ( 100 MM ).   0.00 Single
46 OFAJ NS2290080 29/03/2010 2010-05-05 14:00 2010-05-05 15:00 AL-TI. B ROD 9.5 MM DIA (COIL FORM)   0.00 Single
47 OFDR 2009000892 29/03/2010 2010-04-19 14:30 2010-04-19 15:00 1. STEEL ROUND 85 MM DIA   2.00 Single
48 HVF 0107301 28/03/2010 2010-04-22 12:00 2010-04-22 15:00 CLAMP , etc.   0.00 Single
49 HVF 0409591 28/03/2010 2010-04-21 12:00 2010-04-21 15:00 GASKET , etc.   0.00 Single
50 HVF 0409592 28/03/2010 2010-04-21 12:00 2010-04-21 15:00 STRIP , etc.   0.00 Single
51 HVF 0409593 28/03/2010 2010-04-21 12:00 2010-04-21 15:00 GASKET , etc.   0.00 Single
52 HVF 0811617 28/03/2010 2010-04-27 12:00 2010-04-27 15:00 AXIS DROP ARRESTER , etc.   0.00 Single
53 HVF 0811618 28/03/2010 2010-04-27 12:00 2010-04-27 15:00 ROTARY INDUCTOSYN (ROTOR & SCALE) , etc.   0.00 Single
54 HVF 0811619 28/03/2010 2010-04-27 12:00 2010-04-27 15:00 STAINLESS STEEL "U" SHAPED TUBULAR , etc.   0.00 Single
55 HVF 0811620 28/03/2010 2010-04-27 12:00 2010-04-27 15:00 3PH INDUCTION MOTOR.KW/HP:0.12/0.16 , etc.   0.00 Single
56 OFAJ RS2290487 28/03/2010 2010-04-16 14:00 2010-04-16 15:00 SERVICING&CALIBRATION OF 30T W/BDG   0.00 Single
57 OFAJ RS2290488 28/03/2010 2010-07-13 14:00 2010-07-13 15:00 4/2 WAY VALVE, 4/3 WAY VALVE, CHECK VALVE., DISTRIBUTOR., HYDRAULIC LOCK ., HYDROMOTOR., PILOT CONTROL CHECK VALVE, PRESSURE REDUCING VALVE., PRESSURE RELIEF VALVE., PRESSURE SENSOR., PRESSURE VALVE.,   0.00 Single
58 HVF 0509791 27/03/2010 2010-04-16 12:00 2010-04-16 15:00 PRE-PRINTED ENVELOPE SE-5 , etc.   0.00 Single
59 HVF 0509792 27/03/2010 2010-04-16 12:00 2010-04-16 15:00 TELEPHONE DIRECTORY , etc.   0.00 Single
60 HVF 0811614 27/03/2010 2010-04-20 12:00 2010-04-20 15:00 PANEL COMPACT FAN, 230V AC 50HZ,RPM:2800 , etc.   0.00 Single
61 OFAJ RS2290473 27/03/2010 2010-05-04 14:00 2010-05-04 15:00 CHEVRON PACKING.   0.00 Single
62 OFAJ RS2290475 27/03/2010 2010-05-11 14:00 2010-05-11 15:00 COMPLETE HYDRAULIC PUMP ASSEMBLY, COUPLING STK /PT NO. 730075384, FLANGE STK.NO./DRG.NO.U50-53-201, FLANGE STK.NO./PT.NO. 730075394, GEAR STK.PT.NO.D-2048004(73007530), GEAR, STK/PT.NO. 730075304, OIL   0.00 Single
63 OFAJ RS2290477 27/03/2010 2010-05-04 14:00 2010-05-04 15:00 COLLECTOR FOR ELECTROSTATIC L/CLEAN   0.00 Single
64 OFAJ RS2290478 27/03/2010 2010-05-25 14:00 2010-05-25 15:00 RECTIFIER B500 C2200/3500 .   0.00 Single
65 OFAJ RS2290479 27/03/2010 2010-05-04 14:00 2010-05-04 15:00 FUSE HRC SIEMENS TYPE 3NA1 017 50A, FUSE HRC SIEMENS TYPE 3NA1 020 80A   0.00 Single
66 OFAJ RS2290480 27/03/2010 2010-05-04 14:00 2010-05-04 15:00 CONTACTOR IN OPEN EXECUTION 32A, POWER CONTACTOR 16 AMPS.   0.00 Single
67 OFAJ RS2290481 27/03/2010 2010-05-04 14:00 2010-05-04 15:00 CABLE FLAT TWIN CORE AL.2.5SQ.MM   0.00 Single
68 OFAJ RS2290482 27/03/2010 2010-05-11 14:00 2010-05-11 15:00 C.F.LAMP 230 VOLTS 45/50 WATT.   0.00 Single
69 OFAJ RS2290483 27/03/2010 2010-05-18 14:00 2010-05-18 15:00 "V" BELT ENDLESS FHP-2240, "V" BELT ENDLESS FHP-2260, "V" BELT ENDLESS M-24/ FHP-2250, "V"BELT ENDLESS FHP-2230, FENNER V BELTS FHP-2320, TIMING BELT 5(3+2)/11/1450 JB, V BELT ENDLESS SIZE A-24, V,   0.00 Single
70 OFAJ RS2290484 27/03/2010 2010-05-11 14:00 2010-05-11 15:00 EBNER FURNACE SHAFT.   0.00 Single
71 OFAJ RS2290485 27/03/2010 2010-05-04 14:00 2010-05-04 15:00 BALLUFF MAKE PROXIMITY SWITCH., INDUCTIVE PROXIMITY SWITCH.   0.00 Single
72 HVF 0107296 26/03/2010 2010-04-29 12:00 2010-04-29 15:00 FRICTION DISC , etc.   0.00 Single
73 HVF 0209476 26/03/2010 2010-04-22 12:00 2010-04-22 15:00 WASHER , etc.   0.00 Single
74 HVF 0209478 26/03/2010 2010-04-22 12:00 2010-04-22 15:00 SEAL , etc.   0.00 Single
75 HVF 0209480 26/03/2010 2010-04-29 12:00 2010-04-29 15:00 WASHER , etc.   0.00 Single
76 HVF 0209481 26/03/2010 2010-04-29 12:00 2010-04-29 15:00 WASHER , etc.   0.00 Single
77 HVF 0209483 26/03/2010 2010-04-29 12:00 2010-04-29 15:00 SHIM , etc.   0.00 Single
78 HVF 0209484 26/03/2010 2010-04-29 12:00 2010-04-29 15:00 WASHER , etc.   0.00 Single
79 HVF 0209485 26/03/2010 2010-04-22 12:00 2010-04-22 15:00 CLAMP , etc.   0.00 Single
80 HVF 0209486 26/03/2010 2010-04-22 12:00 2010-04-22 15:00 WASHER , etc.   0.00 Single
81 OFAJ IS2290435 26/03/2010 2010-04-16 14:00 2010-04-16 15:00 SER.CONT.FOR REMOVEL OF COPPER BAND, SERVI.CONTR.FOR REMOVAL OF CU BANDS, SERVICE CONTRACT FOR REMOVAL COPPER   0.00 Single
82 OFAJ IS2290436 26/03/2010 2010-04-16 14:00 2010-04-16 15:00 GALVA BRIGHT COMPOUND - 7707.   0.00 Single
83 OFAJ IS2290437 26/03/2010 2010-03-25 14:00 2010-03-25 15:00 BIPAP MACHINE MODEL:FLOTON BI-LEVEL   0.00 Single
84 OFAJ IS2290438 26/03/2010 2010-03-25 14:00 2010-03-25 15:00 RMS MEDICAL 12 CHANNEL ECG MACHINE   0.00 Single
85 OFAJ IS2290439 26/03/2010 2010-03-25 14:00 2010-03-25 15:00 WATER COOLER   0.00 Single
86 OFAJ NS2290079 26/03/2010 2010-04-28 14:00 2010-04-28 15:00 CERAMIC FOAM FILTER TO DRG.FDY-208   0.00 Single
87 OFAJ RS2290471 26/03/2010 2010-03-26 14:00 2010-03-26 15:00 AC FREQUENCY DRIVE 22 KW.   0.00 Single
88 OFAJ RS2290472 26/03/2010 2010-03-26 14:00 2010-03-26 15:00 BALL BEARING S.R.D.G. SKF-6236   0.00 Single
89 OFAJ TS2290164 26/03/2010 2010-04-28 14:00 2010-04-28 15:00 CUT OFF WHEEL 150X1.6X32 A60P6BL3, GR.WHEEL TO SIZE-125 X 6 X 22.23 MM   0.00 Single
90 OFAJ TS2290165 26/03/2010 2010-04-28 14:00 2010-04-28 15:00 LIVE CENTRE,IS:3793-66 SHANK MT-4, LIVE CENTRE,IS:3793-66 SHANK MT-5, MILLING COLLET M 40   0.00 Single
91 OFAJ TS2290166 26/03/2010 2010-04-28 14:00 2010-04-28 15:00 EXTRA LONG TWIST DRILL 16X300 MM, TWIST DRILL EXTRA LONG 26 X 300 W.L   0.00 Single
92 HVF 0409590 25/03/2010 2010-04-21 12:00 2010-04-21 15:00 FLANGED TUBULAR RIVET , etc.   0.00 Single
93 OFAJ TS2290162 25/03/2010 2010-04-28 14:00 2010-04-28 15:00 817M40FORG.(EN-24)460 MM DIA.X140L, SPRING STEEL Rd.EN-47,75MM DIA, STEEL AISI/SAE-D2,210 MM DIA, STEEL FLAT EN-36, 70MM X 200 MM, T105 CR5 TOOL STEEL 125 MM DIA., T105 CR5 TOOL STEEL SIZE:175 MM DIA   0.00 Single
94 OFAJ TS2290163 25/03/2010 2010-04-28 14:00 2010-04-28 15:00 817M40(EN24)FORG.406MM DIA X 127MML, FORGED T/STEEL 40NI6CR4MO3 230MM DA, H.S.S.XT90W6COMO5CR4V2,15MM DIA., STEEL FLAT C-40 75MMX200MM, STEEL FLAT C-40,60 X 200 MM, T105CR5 FORGED STEEL, 255 MM DIA   0.00 Single
95 HVF 0509790 24/03/2010 2010-03-26 12:00 2010-03-26 15:00 CHAIRS 30912 BLACK , etc.   0.00 Single
96 HVF 0612300 24/03/2010 2010-04-13 12:00 2010-04-13 15:00 INSERT CARBIDE , etc.   0.00 Single
97 OFAJ IS2290432 24/03/2010 2010-03-24 14:00 2010-03-24 15:00 PLASTIC MOULDED CHAIRS MODELCHR2005   0.00 Single
98 OFAJ IS2290433 24/03/2010 2010-03-23 14:00 2010-03-23 15:00 CHANDELIER,MODEL NO- 50270/1200.   0.00 Single
99 OFAJ IS2290434 24/03/2010 2010-03-23 14:00 2010-03-23 15:00 CEILING CURVE CURTAIN CLOTH WHITE C, IRON LADDER 12 FEET, MS PIPE CURVE RING, MS PIPE HOR. POLE 15', MS PIPE IRON POLE 10', SIDE CEILING CURTAIN CLOTH 15'X15', SIDE CURTAIN CLOTH 15'X10'   0.00 Single
100 OFAJ RS2290464 24/03/2010 2010-03-24 14:00 2010-03-24 15:00 SENSORLESS FLUX VECTOR CONTROLLER   0.00 Single
101 OFAJ RS2290465 24/03/2010 2010-04-20 14:00 2010-04-20 15:00 BOLLARD FITTING FOR PATH WAY   0.00 Single
102 OFAJ RS2290466 24/03/2010 2010-04-27 14:00 2010-04-27 15:00 POWER FACTOR CONTROL RELAY.   0.00 Single
103 OFAJ RS2290467 24/03/2010 2010-04-27 14:00 2010-04-27 15:00 DIELECTRIC CARTRIDGE, ELCB FOR 100LP M/C., FLOAT SWITCH, MA/KV METER   0.00 Single
104 OFAJ RS2290468 24/03/2010 2010-04-27 14:00 2010-04-27 15:00 SHAFT FOR DOOR NO.1&4, DRG.MM/1980A   0.00 Single
105 OFAJ FS2290219 23/03/2010 2010-04-16 14:00 2010-04-16 15:00 COMMERCIAL AL.BLANKS O/D130 X 20 LT   0.00 Single
106 OFAJ IS2290429 23/03/2010 2010-04-23 14:00 2010-04-23 15:00 OIL WATER SEPARATOR & FILTRATN UNIT   0.00 Single
107 OFAJ IS2290430 23/03/2010 2010-03-22 14:00 2010-03-22 15:00 LEATHER SAFETY SHOE SIZE-11, LEATHER SAFETY SHOES S:6, LEATHER SAFETY SHOES SIZE: 4, LEATHER SAFETY SHOES SIZE: 5, LEATHER SAFETY SHOES SIZE:10, LEATHER SAFETY SHOES SIZE:7   0.00 Single
108 OFAJ IS2290431 23/03/2010 2010-04-16 14:00 2010-04-16 15:00 PLASTIC STICKER LABEL FOR EXTINGUIS   0.00 Single
109 HVF 0509789 22/03/2010 2010-04-09 12:00 2010-04-09 15:00 FLOOR CLEANING MACHINE & BRUSHES, SPARES , etc.   0.00 Single
110 OFAJ IS2290428 22/03/2010 2010-04-16 14:00 2010-04-16 15:00 CASTROL CLEARDGE EP 690 OR SHELL DR   0.00 Single
111 OFAJ NS2290078 22/03/2010 2010-04-21 14:00 2010-04-21 15:00 SCREW THRED INSERT M-14 X2P,21 MM   0.00 Single
112 OFAJ RS2290462 22/03/2010 2010-04-27 14:00 2010-04-27 15:00 LCD MULTIMEDIA PROJECTOR   0.00 Single
113 OFAJ RS2290463 22/03/2010 2010-04-13 14:00 2010-04-13 15:00 SUPPLY OF FABRICATED DUCT & FITMENT   0.00 Single
114 OFAJ TS2290159 22/03/2010 2010-04-06 14:00 2010-04-06 15:00 TAPPER ROLLER SET (BIE MAKE), PARALLEL(STRAIGHT) ROLLER SET   0.00 Single
115 OFAJ TS2290160 22/03/2010 2010-04-28 14:00 2010-04-28 15:00 CUTTER S/F 80 X 27 X 12 MM, H.S.S CENTRE DRILL 1MMX3.15MM, MACHINE TAP TO DRG.NO.FS/T-4066A, SLOT MILL CUTTER P/S A18H IS:6352., THREAD MILLING CUTTER DRG.FST-7132.   0.00 Single
116 OFAJ TS2290161 22/03/2010 2010-04-28 14:00 2010-04-28 15:00 BEARING FITTING TOOL KIT SET., BEARING PULLER SET "SKF" TMIP 30-60, BEARING PULLER SET, "SKF" TMIP 7-28, BEARING PULLER SET, "SKF" TMMD 100.   0.00 Single
117 HVF 0509785 20/03/2010 2010-04-09 12:00 2010-04-09 15:00 TRANSLATION OF RUSSIAN DOC TO ENGLISH , etc.   0.00 Single
118 HVF 0811610 20/03/2010 2010-04-13 12:00 2010-04-13 15:00 RECTIFICATION OF FOUNDATION &REPLACEMENT , etc.   0.00 Single
119 HVF 0509774 19/03/2010 2010-04-16 12:00 2010-04-16 15:00 BLUE METAL SIZE OF 40MM , etc.   0.00 Single
120 HVF 0509776 19/03/2010 2010-04-16 12:00 2010-04-16 15:00 RIGID UNPLASTICISED PVC PIPE 50MM DIA 6 , etc.   0.00 Single
121 HVF 0509777 19/03/2010 2010-04-16 12:00 2010-04-16 15:00 HIGH ALUMINIA BRICK 70% ALUMINA , etc.   0.00 Single
122 HVF 0509779 19/03/2010 2010-04-20 12:00 2010-04-20 15:00 PLASTIC FELT NO:2104 , etc.   0.00 Single
123 HVF 0509780 19/03/2010 2010-04-20 12:00 2010-04-20 15:00 PVC HIGH LEVEL FLUSH TANK CISTERN WITH , etc.   0.00 Single
124 HVF 0509783 19/03/2010 2010-04-27 12:00 2010-04-27 15:00 DIRECTIONAL DIGITAL POWER METER WITH , etc.   0.00 Single
125 HVF 0509784 19/03/2010 2010-04-13 12:00 2010-04-13 15:00 TL.PHONE CABLE PVC INSULD SOLID ANNEALED , etc.   0.00 Single
126 OFAJ IS2290427 19/03/2010 2010-04-23 14:00 2010-04-23 15:00 NOSING LUBRICANT (GRAPHITE OIL)   0.00 Single
127 OFAJ RS2290456 19/03/2010 2010-04-06 14:00 2010-04-06 15:00 AMC OF SCADA SYSTEM.   0.00 Single
128 OFAJ RS2290457 19/03/2010 2010-04-27 14:00 2010-04-27 15:00 CHAIN MATE 11OZ PACK.   0.00 Single
129 OFAJ RS2290458 19/03/2010 2010-04-27 14:00 2010-04-27 15:00 ACID HANDLING PUMP .   0.00 Single
130 OFAJ RS2290459 19/03/2010 2010-04-27 14:00 2010-04-27 15:00 THYRISTOR FUSE 100A,660V AC 3NE8021, THYRISTOR FUSE 80 AMP/660V 3NE8020   0.00 Single
131 OFAJ RS2290460 19/03/2010 2010-04-27 14:00 2010-04-27 15:00 CABLE INSULATION REPAIRING KIT   0.00 Single
132 OFAJ RS2290461 19/03/2010 2010-04-27 14:00 2010-04-27 15:00 BALL BEARING UC-207 D1., PLUMMER BLOCK P-207., PLUMMER BLOCK UCP-207 D1.   0.00 Single
133 OFAJ SS2290199 19/03/2010 2010-04-09 14:00 2010-04-09 15:00 END MILL.8 DIA.TITALN COATING.   0.00 Single
134 OFAJ TS2290156 19/03/2010 2010-04-21 14:00 2010-04-21 15:00 SCREW THRD MICROMTR 125-150 V 60DEG, SCREW THRD MICROMTR 75-100MM,60DEG, VERNIER CALIPER WITH DIAL 0-150mm L   0.00 Single
135 OFAJ TS2290157 19/03/2010 2010-04-21 14:00 2010-04-21 15:00 ELECTRODE E-717 SIZE:5MM DIA X450MM   0.00 Single
136 OFAJ TS2290158 19/03/2010 2010-04-21 14:00 2010-04-21 15:00 PLAIN WIRE FOR EDM M/C. 0.25MM DIA   0.00 Single
137 HVF 0409584 18/03/2010 2010-04-07 12:00 2010-04-07 15:00 STRAP , etc.   0.00 Single
138 HVF 0409585 18/03/2010 2010-04-21 12:00 2010-04-21 15:00 SEARCH LIGHT,INFRARED,OU-3GKM , etc.   0.00 Single
139 HVF 0509759 18/03/2010 2010-04-09 12:00 2010-04-09 15:00 INDUSTRIAL SAFETY SHOE LEATHER BLACK , etc.   0.00 Single
140 HVF 0509760 18/03/2010 2010-04-09 12:00 2010-04-09 15:00 OVERCOAT BLUE 1/2 SLEEVE , etc.   0.00 Single
141 HVF 0509761 18/03/2010 2010-04-09 12:00 2010-04-09 15:00 REUSABLE EAR-PLUGS WITH CHROD AND CASE , etc.   0.00 Single
142 HVF 0509762 18/03/2010 2010-04-09 12:00 2010-04-09 15:00 INDUSTRIAL SAFETY SHOE LEATHER BLACK FOR , etc.   0.00 Single
143 HVF 0509773 18/03/2010 2010-03-18 12:00 2010-03-18 15:00 HIRING OF 50MT LOADING CAPACITY 16 WHEEL , etc.   0.00 Single
144 HVF 0612296 18/03/2010 2010-04-23 12:00 2010-04-23 15:00 INSERT BLADE FOR DIA 10.26 , etc.   0.00 Single
145 HVF 0612297 18/03/2010 2010-04-23 12:00 2010-04-23 15:00 `T' HANDLE 1" (25MM) SQ. DRIVE, HIGH , etc.   0.00 Single
146 HVF 0612298 18/03/2010 2010-04-23 12:00 2010-04-23 15:00 DRILL TWIST P/S SOLID CARBIDE , etc.   0.00 Single
147 HVF 0612299 18/03/2010 2010-04-23 12:00 2010-04-23 15:00 GRINDING WHEEL FOR SNAGGING TYPE 11 , etc.   0.00 Single
148 OFAJ IS2290424 18/03/2010 2010-04-16 14:00 2010-04-16 15:00 ALOXITE CLOTH BELT 200X1500GRIT-60, FLX. NON-METALLIC STRAPPING ROLL   0.00 Single
149 OFAJ SS2290198 18/03/2010 2010-03-24 14:00 2010-03-24 15:00 TH(BORING)ECO-CUT EC25R-2.25 D 13.   0.00 Single
150 OFAJ TS2290154 18/03/2010 2010-04-21 14:00 2010-04-21 15:00 HSS BLANK TO SIZE 3 X 23 X 150MM L   0.00 Single
151 OFAJ TS2290155 18/03/2010 2010-04-21 14:00 2010-04-21 15:00 175 MM DIA EN24 2 TO 3 METERS LONG, FORGED STEEL 817M40 (EN24)150MM DIA, STEEL ROUND EN-36 SIZE-110 MM DIA., T105 CR5 T00L STEEL SIZE 65 MM DIA., T105 CR5 TOOL STEEL SIZE: 40 MM DIA   0.00 Single
152 HVF 0209466 17/03/2010 2010-04-22 12:00 2010-04-22 15:00 SHOCK ABSORBER , etc.   0.00 Single
153 HVF 0209467 17/03/2010 2010-04-22 12:00 2010-04-22 15:00 GASKET , etc.   0.00 Single
154 HVF 0209468 17/03/2010 2010-04-22 12:00 2010-04-22 15:00 GASKET , etc.   0.00 Single
155 HVF 0209473 17/03/2010 2010-04-22 12:00 2010-04-22 15:00 RUBBER TIP , etc.   0.00 Single
156 HVF 0209474 17/03/2010 2010-04-22 12:00 2010-04-22 15:00 PACKING SECTOR , etc.   0.00 Single
157 HVF 0409577 17/03/2010 2010-04-07 12:00 2010-04-07 15:00 LIGHT WITH BRACKET , etc.   0.00 Single
158 HVF 0509746 17/03/2010 2010-04-09 12:00 2010-04-09 15:00 SUPPLY OF GENERAL MEDICINES , etc.   0.00 Single
159 HVF 0509747 17/03/2010 2010-04-09 12:00 2010-04-09 15:00 SUPPLY OF LABORATORY REAGENTS , etc.   0.00 Single
160 HVF 0509748 17/03/2010 2010-04-09 12:00 2010-04-09 15:00 SUPPLY OF SURGICAL STORES-BULK , etc.   0.00 Single
161 HVF 0509771 17/03/2010 2010-04-09 12:00 2010-04-09 15:00 BRITELITE MERCURY LED RECHARGEABLE TORCH , etc.   0.00 Single
162 HVF 0509772 17/03/2010 2010-04-09 12:00 2010-04-09 15:00 SINGLE PHASE AC STATIC WATT-HOUR METER , etc.   0.00 Single
163 HVF 0612291 17/03/2010 2010-04-20 12:00 2010-04-20 15:00 SCREW T X M 4.5 X 9 , etc.   0.00 Single
164 HVF 0612292 17/03/2010 2010-04-20 12:00 2010-04-20 15:00 TORSION SPRING TESTER CAPACITY 100 KGFCM , etc.   0.00 Single
165 HVF 0612294 17/03/2010 2010-04-20 12:00 2010-04-20 15:00 CLOTH EMERY (GRIT 24) , etc.   0.00 Single
166 HVF 0612295 17/03/2010 2010-04-20 12:00 2010-04-20 15:00 CYLINDRICAL HOLDER FOR MILLING HEAD , etc.   0.00 Single
167 OFAJ RS2290449 17/03/2010 2010-04-20 14:00 2010-04-20 15:00 ROOM AIR COOLER 5000CU.M/HR.   0.00 Single
168 OFAJ RS2290450 17/03/2010 2010-04-20 14:00 2010-04-20 15:00 SPARE FOR INDUCTION HEATER.   0.00 Single
169 OFAJ RS2290451 17/03/2010 2010-04-20 14:00 2010-04-20 15:00 V-BELT 525-L-12., V-BELT 655-L-12.   0.00 Single
170 OFAJ RS2290452 17/03/2010 2010-04-20 14:00 2010-04-20 15:00 TELESCOPIC GAURD 1250MM.HMT84404105   0.00 Single
171 OFAJ RS2290453 17/03/2010 2010-04-20 14:00 2010-04-20 15:00 BALLAST(CHOKE COIL)CU.WIRE WOUND40W   0.00 Single
172 OFAJ RS2290454 17/03/2010 2010-04-20 14:00 2010-04-20 15:00 "O"RING;1-1/2" X 1-7/8" X 3/16" C.S, 'O' RING 3 5/8" X 3 7/8" X 3/16"CS, 'O' RING 4 3/4"X4-7/8"X 3/16"CS, 'O'RING 2 1/8"X2 1/2"X3/16" C/S., 'O'RING 3"X3 3/8"X 3/16"CS, CHEVRON PACKING, O RING, OIL SEA   0.00 Single
173 OFAJ RS2290455 17/03/2010 2010-04-20 14:00 2010-04-20 15:00 MIMIC BOARD.   0.00 Single
174 OFAJ FS2290216 16/03/2010 2010-04-07 14:00 2010-04-07 15:00 CORR.FIBREBOARD PCKG. BOX FS-2377D   0.00 Single
175 OFAJ FS2290217 16/03/2010 2010-04-07 14:00 2010-04-07 15:00 CONV.OF SLUG CC-514 TO CC-496D   0.00 Single
176 OFAJ IS2290422 16/03/2010 2010-03-16 14:00 2010-03-16 15:00 MATTRESSES. SIZE:- 36" X 78"., WOODEN CHAIRS WITH ARMS.   0.00 Single
177 OFAJ IS2290423 16/03/2010 2010-03-15 14:00 2010-03-15 15:00 BED.SIZE:3'X6-1/2'WOODEN BOX(OPTIMA   0.00 Single
178 OFAJ SS2290197 16/03/2010 2010-04-07 14:00 2010-04-07 15:00 SOLID CARB.END MILL CUTT.SIZE-12MM   0.00 Single
179 HVF 0107289 15/03/2010 2010-04-08 12:00 2010-04-08 15:00 CLAMPING DEVICE , etc.   0.00 Single
180 HVF 0107290 15/03/2010 2010-04-08 12:00 2010-04-08 15:00 NIPPLE , etc.   0.00 Single
181 HVF 0409574 15/03/2010 2010-04-07 12:00 2010-04-07 15:00 BRACKET , etc.   0.00 Single
182 HVF 0409575 15/03/2010 2010-04-07 12:00 2010-04-07 15:00 PLUG , etc.   0.00 Single
183 HVF 0409576 15/03/2010 2010-04-07 12:00 2010-04-07 15:00 SPRING , etc.   0.00 Single
184 HVF 0612289 15/03/2010 2010-04-16 12:00 2010-04-16 15:00 PLIER LONG NOSE (FLAT) , etc.   0.00 Single
185 HVF 0612290 15/03/2010 2010-04-16 12:00 2010-04-16 15:00 THREAD MILLING HOLDER M24X3 , etc.   0.00 Single
186 HVF 0811602 15/03/2010 2010-04-13 12:00 2010-04-13 15:00 POLY V BELT , etc.   0.00 Single
187 HVF 0811603 15/03/2010 2010-04-13 12:00 2010-04-13 15:00 HYD.OIL PRESSURE GAUGE , etc.   0.00 Single
188 HVF 0811606 15/03/2010 2010-05-04 12:00 2010-05-04 15:00 BALL SCREW WITH NUT(IN ASSEMBLED SET) , etc.   0.00 Single
189 OFAJ IS2290421 15/03/2010 2010-03-24 14:00 2010-03-24 15:00 CHAIR EXECUTIVE MODEL PCH-7002., CHAIR GODREJ PCH-7001, COMPUTER TABLE STYLO GODREJ., D-LION SYNTH, LTH-1 SEATER SOFA SET, D-LION SYNTH, LTH-2 SEATER SOFA SET, D-LION SYNTH, LTH-3 SEATER SOFA SET, EXE   0.00 Single
190 OFAJ NS2290075 15/03/2010 2010-04-06 14:00 2010-04-06 15:00 FBR BURNER FGP 70/2 TL 406 TO 812KW, FBR ITALY BURNER MODEL G X 5.22, FBR ITALY BURNER MODEL NO.FGP150/2   0.00 Single
191 OFAJ TS2290153 15/03/2010 2010-04-21 14:00 2010-04-21 15:00 CONC. PLUG GAUGE DRG.NO. FS/G-12018, CONC.PLUG GAUGE DRG.NO.FS/G-12017 A, POSITION GAUGE DRG.NO. FS/G-12047 A, RADIUS GAUGE TO DRG. NO. FS/G-595 A, RING GAUGE TO DRG. NO. FS/G-12014.   0.00 Single
192 HVF 0107287 14/03/2010 2010-04-08 12:00 2010-04-08 15:00 WEDGE , etc.   0.00 Single
193 HVF 0209460 14/03/2010 2010-04-01 12:00 2010-04-01 15:00 SCREW B1M8.6g.45.46.016 ST20 , etc.   0.00 Single
194 HVF 0209461 14/03/2010 2010-04-01 12:00 2010-04-01 15:00 SCREW , etc.   0.00 Single
195 HVF 0209462 14/03/2010 2010-04-08 12:00 2010-04-08 15:00 WASHER C8.01.016 , etc.   0.00 Single
196 HVF 0209464 14/03/2010 2010-04-08 12:00 2010-04-08 15:00 SHIM , etc.   0.00 Single
197 HVF 0209465 14/03/2010 2010-04-08 12:00 2010-04-08 15:00 FLOATING RING , etc.   0.00 Single
198 HVF 0509768 14/03/2010 2010-04-09 12:00 2010-04-09 15:00 TELEPHONE PLAN INSTRUMENT SET , etc.   0.00 Single
199 HVF 0409571 12/03/2010 2010-04-07 12:00 2010-04-07 15:00 NOZZLE , etc.   0.00 Single
200 HVF 0409573 12/03/2010 2010-04-07 12:00 2010-04-07 15:00 SPRING WASHER , etc.   0.00 Single
201 HVF 0811601 12/03/2010 2010-04-06 12:00 2010-04-06 15:00 HEATING ELEMENT "U" SHAPED 2KW , etc.   0.00 Single
202 OFAJ IS2290410 12/03/2010 2010-04-09 14:00 2010-04-09 15:00 SHOT STEEL GRADE SS-1000   0.00 Single
203 OFAJ IS2290411 12/03/2010 2010-04-16 14:00 2010-04-16 15:00 ARRGT.CHARGING STAND DRG.NO.CC/401D   0.00 Single
204 OFAJ IS2290412 12/03/2010 2010-04-09 14:00 2010-04-09 15:00 POLYTHENE BAG S:200MM X 750MMX.065, POLYTHENE BAG-200X400X0.065MM., POLYTHENE BAG-300X450X.65 MM.   0.00 Single
205 OFAJ IS2290413 12/03/2010 2010-04-09 14:00 2010-04-09 15:00 DENATURED SPIRIT   0.00 Single
206 HVF 0811598 11/03/2010 2010-05-04 12:00 2010-05-04 15:00 VALVE RELIEF , etc.   0.00 Single
207 HVF 0811600 11/03/2010 2010-04-06 12:00 2010-04-06 15:00 JIB BOOM CYLINDER ASSY. , etc.   0.00 Single
208 HVF 0900685 11/03/2010 2010-04-15 12:00 2010-04-15 15:00 HUB BOLT , etc.   0.00 Single
209 OFAJ IS2290409 11/03/2010 2010-03-10 14:00 2010-03-10 15:00 STEEL CABINETS. SIZE:- 30"X18"X36"., STEEL CABINETS. SIZE:- 32"X18"X34".   0.00 Single
210 OFAJ RS2290447 11/03/2010 2010-03-30 14:00 2010-03-30 15:00 9 TEETH PINION, PT.NO. 451-4C-33., FINE FEED GEAR 90T, PT.451-4G-11., METALLIC WIRE WITH FITTINGS, METRIC CROSS SCREW WITH CROSS NUT, SPRING 1Y 1107/19, PT.7/052/0138., SPRING 1Y 814, PT.7/052/0178.,,   0.00 Single
211 OFAJ RS2290448 11/03/2010 2010-04-13 14:00 2010-04-13 15:00 DESERT AIR COOLER ISI MARKED 18".   0.00 Single
212 OFAJ SS2290193 11/03/2010 2010-03-30 14:00 2010-03-30 15:00 COATED CARBIDE INSERT NO.VCMT160404   0.00 Single
213 OFAJ SS2290195 11/03/2010 2010-03-12 14:00 2010-03-12 15:00 NUB TO CQA(AMMN)DRG.NO.155-1050.   0.00 Single
214 OFAJ TS2290147 11/03/2010 2010-04-16 14:00 2010-04-16 15:00 MAGNETIC BASE 50 X 50 X 60 MM H., MAGNETIC BASE 73X50X 64 MM (KM725), MAGNETIC STAND WITH V-BASE 65 X 56   0.00 Single
215 OFAJ TS2290148 11/03/2010 2010-04-16 14:00 2010-04-16 15:00 H.S.S. HAND TAP RH COARSE P. M20, H.S.S.CENTRE DRILL 1.6MMX4MM, HSS HAND TAP SIZE-1-1/2"SECOND TAP, HSS P.S.TWIST DRILL RH. 3.30 MM DIA   0.00 Single
216 OFAJ TS2290149 11/03/2010 2010-04-16 14:00 2010-04-16 15:00 ER COLLET CHUCK,BT 40/A70/FOR ER 32, ER COLLET CHUCK-BT 40/A80/FOF ER 40, ER20 SPRING COLLET SET FOR VMC M MC, ER25 SPRING COLLET SET FOR VMC M MC, ER32 SPRING COLLET SET FOR VMC M MC   0.00 Single
217 OFAJ TS2290150 11/03/2010 2010-04-16 14:00 2010-04-16 15:00 CUTTER END MILL P.S.12MM DIA, CUTTER END MILL P.S.25MM DIA, CUTTER END MILL P.S.6MM DIA, CUTTER END MILL P/S 15X150 MM, CUTTER END MILL P/S 16X150 MM   0.00 Single
218 OFCH 200901039 11/03/2010 2010-04-07 14:00 2010-04-07 14:30 LABEL IA -1013   0.00 Single
219 HVF 0409567 10/03/2010 2010-04-07 12:00 2010-04-07 15:00 PLATE , etc.   0.00 Single
220 HVF 0409568 10/03/2010 2010-04-07 12:00 2010-04-07 15:00 CLAMP , etc.   0.00 Single
221 HVF 0409569 10/03/2010 2010-04-07 12:00 2010-04-07 15:00 CASING , etc.   0.00 Single
222 HVF 0409570 10/03/2010 2010-04-07 12:00 2010-04-07 15:00 GASKET , etc.   0.00 Single
223 HVF 0509765 10/03/2010 2010-03-30 12:00 2010-03-30 15:00 ROOTS HAKO MANNUALY OPERATED FLOOR , etc.   0.00 Single
224 HVF 0509766 10/03/2010 2010-04-06 12:00 2010-04-06 15:00 PAINT RED OXIDE GENERAL PURPOSE , etc.   0.00 Single
225 HVF 0612286 10/03/2010 2010-04-16 12:00 2010-04-16 15:00 TOOL HOLDER PCBNR 4040 S19 , etc.   0.00 Single
226 HVF 0612287 10/03/2010 2010-04-16 12:00 2010-04-16 15:00 SHIM 214-85-614 , etc.   0.00 Single
227 HVF 0612288 10/03/2010 2010-04-16 12:00 2010-04-16 15:00 ANGLE GRINDER PNEUMATIC , etc.   0.00 Single
228 OFAJ FS2290215 10/03/2010 2010-03-10 14:00 2010-03-10 15:00 STEEL ROUND SIZE:90 +/- 1 MM DIA   0.00 Single
229 OFAJ IS2290408 10/03/2010 2010-10-13 14:00 2010-10-13 15:00 SUPPLY OF DUST EXTRACT & COLLECTION   0.00 Single
230 OFAJ RS2290445 10/03/2010 2010-04-13 14:00 2010-04-13 15:00 AMC OF 320KV X-RAY IMAGING SYSTEM   0.00 Single
231 OFAJ RS2290446 10/03/2010 2010-04-13 14:00 2010-04-13 15:00 PERIOD.MAINT./SERVIC.;INV/B/BS/137., PERIODICAL MAINT./SERVICING OJ/1770, PERIODICAL MAINT./SERVICING;OJ/1608, PERIODICAL MAINT./SERVICING;OJ/1771, PERIODICAL MAINT./SERVICING;OJ/2164, PERIODICAL MAIN   0.00 Single
232 HVF 0409560 09/03/2010 2010-04-07 12:00 2010-04-07 15:00 OIL COOLER , etc.   0.00 Single
233 HVF 0107282 09/03/2010 2010-04-01 12:00 2010-04-01 15:00 STOP , BUFFER , etc.   0.00 Single
234 HVF 0107283 09/03/2010 2010-04-01 12:00 2010-04-01 15:00 BUSHING , etc.   0.00 Single
235 HVF 0409561 09/03/2010 2010-04-07 12:00 2010-04-07 15:00 HOSE CONNECTION ASSY , etc.   0.00 Single
236 HVF 0409562 09/03/2010 2010-04-07 12:00 2010-04-07 15:00 SPRING , etc.   0.00 Single
237 HVF 0409564 09/03/2010 2010-04-07 12:00 2010-04-07 15:00 INLET VANE DEVICE ASSY , etc.   0.00 Single
238 HVF 0409565 09/03/2010 2010-04-07 12:00 2010-04-07 15:00 GASKET , etc.   0.00 Single
239 HVF 0409566 09/03/2010 2010-04-07 12:00 2010-04-07 15:00 CLAMP , etc.   0.00 Single
240 HVF 0701602 09/03/2010 2010-04-01 12:00 2010-04-01 15:00 DIE BLOCK SIZE:812X812X610MM(32X32X24IN) , etc.   0.00 Single
241 HVF 0900684 09/03/2010 2010-04-22 12:00 2010-04-22 15:00 COOL CONTAINER 50L CAPACITY-SINTEX MAKE , etc.   0.00 Single
242 OFAJ IS2290404 09/03/2010 2010-03-08 14:00 2010-03-08 15:00 BED SPREADS., MATTRESSES. SIZE:- 36" X 78"., MATTRESSES. SIZE:- 40" X 70"., MOSQUITO NETS., PILLOW COVERS., PILLOWS.   0.00 Single
243 OFAJ IS2290405 09/03/2010 2010-03-08 14:00 2010-03-08 15:00 SPECIAL PAINTING ON EXTR ROAD EXT.S   0.00 Single
244 OFAJ IS2290406 09/03/2010 2010-03-08 14:00 2010-03-08 15:00 SONY LCD 40", MODEL: KLV-40 BX400.   0.00 Single
245 OFAJ IS2290407 09/03/2010 2010-04-09 14:00 2010-04-09 15:00 DRIPPER(2/4 LITRE/HR)PVC FOR DRIP I, LATERAL ISI DIA 16MM FOR DRIP IRRIG, PIPE 50 MM DIA(06 MTR,PRESS 10 KGF)   0.00 Single
246 OFAJ RS2290443 09/03/2010 2010-03-23 14:00 2010-03-23 15:00 BALL SCREW WITH NUT FOR X AXIS   0.00 Single
247 OFAJ RS2290444 09/03/2010 2010-04-30 14:00 2010-04-30 15:00 ALTERNATOR PT.NO.26021282 .   0.00 Single
248 OFAJ SS2290190 09/03/2010 2010-03-30 14:00 2010-03-30 15:00 PARTING T.H.TO TAEGUTEC TTEL 3232-6   0.00 Single
249 OFAJ TS2290145 09/03/2010 2010-04-02 14:00 2010-04-02 15:00 40 C8 FLAT FORGING 125MM TX625MM SQ, 40C8 FLAT FORG. 115TX840WX1300MM L, FLAT FORG.55C8,125MMTX640MMWX970MML, HOT ROLLED STEEL ROUND 10 MM DIA., TOOL STEEL T105CR5MN2, 100 MM DIA.   0.00 Single
250 OFAJ TS2290146 09/03/2010 2010-04-02 14:00 2010-04-02 15:00 CUTTER S/F 100x32x16 MM, CUTTER S/F 80x22x8 MM, HSS T/S T SLOT CUTTER 10IS:2668., HSS T/S T SLOT CUTTER 14IS:2668, SAW SLITTING 100X32X3X48   0.00 Single
251 HVF 0409559 08/03/2010 2010-04-07 12:00 2010-04-07 15:00 PIPE , etc.   0.00 Single
252 HVF 0509758 08/03/2010 2010-03-30 12:00 2010-03-30 15:00 HAMAM , etc.   0.00 Single
253 OFAJ IS2290401 08/03/2010 2010-03-08 14:00 2010-03-08 15:00 SAMSUNG LCD TV 46"   0.00 Single
254 OFAJ IS2290402 08/03/2010 2010-03-08 14:00 2010-03-08 15:00 PRELAM TABLE 18MM SIZE 4X2   0.00 Single
255 OFAJ IS2290403 08/03/2010 2010-03-08 14:00 2010-03-08 15:00 CHAIR WITH CUSHIONED SEAT   0.00 Single
256 OFAJ RS2290441 08/03/2010 2010-04-06 14:00 2010-04-06 15:00 GDM65 SP:CONTROL UNIT-TURRET HEAD   0.00 Single
257 OFAJ RS2290442 08/03/2010 2010-03-30 14:00 2010-03-30 15:00 SPARES FOR ABI MAKE DYNAMIC BAL., SPARES FOR ABI MAKE DYNAMIC BALANC., SPARES FOR ABI MAKE DYNANIC BAL.   0.00 Single
258 OFAJ TS2290144 08/03/2010 2010-04-07 14:00 2010-04-07 15:00 POLISHING MOP.6"X5/8"X1".GRIT-120   0.00 Single
259 OFAJ IS2290378 07/03/2010 2010-03-31 14:00 2010-03-31 15:00 LABOUR CONTRACT FOR S.M. SHOP (I)   0.00 Single
260 OFAJ IS2290379 07/03/2010 2010-03-16 14:00 2010-03-16 15:00 LABOUR CONTRACT FOR S.M. SHOP (II)   0.00 Single
261 OFAJ IS2290380 07/03/2010 2010-03-31 14:00 2010-03-31 15:00 LABOUR CONTRACT FOR S.M. SHOP (I), LABOUR CONTRACT FOR S.M. SHOP (II)   0.00 Single
262 OFAJ IS2290381 07/03/2010 2010-03-31 14:00 2010-03-31 15:00 LABOUR CONTRACT FOR FUZE SHOP   0.00 Single
263 OFAJ IS2290382 07/03/2010 2010-03-31 14:00 2010-03-31 15:00 LABOUR CONTRACT FOR FUZE SHOP   0.00 Single
264 OFAJ IS2290383 07/03/2010 2010-03-31 14:00 2010-03-31 15:00 LABOUR CONTRACT FOR CCS SHOP   0.00 Single
265 OFAJ IS2290384 07/03/2010 2010-03-31 14:00 2010-03-31 15:00 LABOUR CONTRACT FOR CCS SHOP   0.00 Single
266 OFAJ IS2290385 07/03/2010 2010-03-31 14:00 2010-03-31 15:00 SCRAPING OF SHOP FLOOR OF FUZE SHOP, UPKEEP OF SHOP FLOOR OF EDS SHOP   0.00 Single
267 OFAJ IS2290386 07/03/2010 2010-03-31 14:00 2010-03-31 15:00 CONTRACT FOR SWEEPING OF HOSPITAL, LABOUR CONTRACT FOR DSC DETACHMENT   0.00 Single
268 OFAJ IS2290387 07/03/2010 2010-03-31 14:00 2010-03-31 15:00 UPKEEP OF SHOP FLOOR OF STORE RTS., UPKEEP OF SHOP FLOOR OF STORES   0.00 Single
269 OFAJ IS2290388 07/03/2010 2010-03-31 14:00 2010-03-31 15:00 LABOUR CONTRACT FOR M.T. SECTION, UPKEEP OF SHOP FLOOR OF FOUNDRY/EXT   0.00 Single
270 OFAJ IS2290389 07/03/2010 2010-03-31 14:00 2010-03-31 15:00 UPKEEP OF SHOP FLOOR OF S.F. SHOP   0.00 Single
271 OFAJ IS2290390 07/03/2010 2010-03-31 14:00 2010-03-31 15:00 LABOUR CONTRACT FOR DIE CASTING SHO, LABOUR CONTRACT FOR QC 3 SECTION, LABOUR CONTRACT FOR TR, BS & EXTRUS   0.00 Single
272 OFAJ IS2290391 07/03/2010 2010-03-31 14:00 2010-03-31 15:00 UPKEEP OF SHOP FLOOR OF DIE CASTING, UPKEEP OF SHOP FLOOR OF ROCKET SECT   0.00 Single
273 OFAJ IS2290392 07/03/2010 2010-03-31 14:00 2010-03-31 15:00 UPKEEP OF SHOP FLOOR OF TR&QCIM SEC   0.00 Single
274 OFAJ IS2290393 07/03/2010 2010-03-31 14:00 2010-03-31 15:00 UPKEEP OF SHOP FLOOR OF CCS SHOP   0.00 Single
275 OFAJ IS2290394 07/03/2010 2010-03-31 14:00 2010-03-31 15:00 LABOUR CONTRACT FOR INDUSTRAIL CANT   0.00 Single
276 OFAJ IS2290395 07/03/2010 2010-03-31 14:00 2010-03-31 15:00 UKPEEP OF SHOP FLOOR OF S.M. SHOP   0.00 Single
277 OFAJ IS2290396 07/03/2010 2010-03-31 14:00 2010-03-31 15:00 LABOUR CONTRACT FOR SHELL FORGE SHO   0.00 Single
278 OFAJ IS2290397 07/03/2010 2010-03-31 14:00 2010-03-31 15:00 LABOUR CONTRACT FOR MM SECTION   0.00 Single
279 OFAJ IS2290398 07/03/2010 2010-03-31 14:00 2010-03-31 15:00 LABOUR CONTRACT FOR QC 2 SECTION   0.00 Single
280 OFAJ IS2290399 07/03/2010 2010-03-31 14:00 2010-03-31 15:00 SERVICE CONTRACT FOR FHO AT OFAJ   0.00 Single
281 HVF 0107276 06/03/2010 2010-03-25 12:00 2010-03-25 15:00 HANDLE , etc.   0.00 Single
282 HVF 0209455 06/03/2010 2010-04-08 12:00 2010-04-08 15:00 BOLT , etc.   0.00 Single
283 HVF 0209456 06/03/2010 2010-04-08 12:00 2010-04-08 15:00 GASKET , etc.   0.00 Single
284 HVF 0209457 06/03/2010 2010-04-08 12:00 2010-04-08 15:00 SEAL, OIL , etc.   0.00 Single
285 HVF 0209458 06/03/2010 2010-04-08 12:00 2010-04-08 15:00 PACKING RING , etc.   0.00 Single
286 HVF 0509752 06/03/2010 2010-03-26 12:00 2010-03-26 15:00 MOLYGRAPH "GFL 4000 (ECO-FRIENDLY) , etc.   0.00 Single
287 HVF 0509753 06/03/2010 2010-03-26 12:00 2010-03-26 15:00 PAINT RFU, ENAMEL DARK ADMIRALITY GRAY. , etc.   0.00 Single
288 HVF 0811594 06/03/2010 2010-04-13 12:00 2010-04-13 15:00 BRASS PAD PT.NO.M8053 , etc.   0.00 Single
289 OFAJ IS2290371 06/03/2010 2010-10-13 14:00 2010-10-13 15:00 L.D.O.DECANTING TANK,CAP-5000 LTRS.   0.00 Single
290 OFAJ IS2290372 06/03/2010 2010-04-09 14:00 2010-04-09 15:00 CLEANING OF TRENCHES IN CCS   0.00 Single
291 OFAJ IS2290373 06/03/2010 2010-04-09 14:00 2010-04-09 15:00 FOLIO BAG   0.00 Single
292 OFAJ IS2290374 06/03/2010 2010-04-16 14:00 2010-04-16 15:00 PHOTOSTAT PAPER SIZE: A-3.   0.00 Single
293 OFAJ IS2290375 06/03/2010 2010-04-09 14:00 2010-04-09 15:00 STRAPPING MACHINE   0.00 Single
294 OFAJ IS2290376 06/03/2010 2010-04-16 14:00 2010-04-16 15:00 SPIRIT STAIN VARNISH BLACK., SPIRIT WHITE   0.00 Single
295 OFAJ IS2290377 06/03/2010 2010-04-09 14:00 2010-04-09 15:00 POLYTHENE TUBE 115(+10)XO.1MM TH.   0.00 Single
296 HVF 0612281 05/03/2010 2010-04-06 12:00 2010-04-06 15:00 BAND SAW BLADE 4860X34X1.1 MM ENDLESS, , etc.   0.00 Single
297 HVF 0612282 05/03/2010 2010-04-06 12:00 2010-04-06 15:00 CUTTER MILLING , etc.   0.00 Single
298 OFAJ IS2290367 05/03/2010 2010-03-06 14:00 2010-03-06 15:00 ACCIDENT PREVENTION MANUAL FOR BUSI, LEE'S LOSS PREVENTION IN PROCESS IN   0.00 Single
299 OFAJ IS2290368 05/03/2010 2010-03-05 14:00 2010-03-05 15:00 SAMSUNG LED TV 46" MODEL LA46B530   0.00 Single
300 OFAJ IS2290369 05/03/2010 2010-03-05 14:00 2010-03-05 15:00 CURTAIN,BED COVER,PILOW&REP.OF SOFA   0.00 Single
301 OFAJ IS2290370 05/03/2010 2010-03-05 14:00 2010-03-05 15:00 MULTIMEDIA PROJECTOR WITH ACCESSORI   0.00 Single
302 OFAJ RS2290438 05/03/2010 2010-03-05 14:00 2010-03-05 15:00 DISM.& RE-INST.OF AIR CONDITIONERS.   0.00 Single
303 OFAJ RS2290439 05/03/2010 2010-03-05 14:00 2010-03-05 15:00 INSTALLATION OF WATER CHILLER.   0.00 Single
304 OFAJ RS2290440 05/03/2010 2010-03-05 14:00 2010-03-05 15:00 HYDRAULIC MINERAL OIL VG-68.   0.00 Single
305 HVF 0107275 04/03/2010 2010-03-11 12:00 2010-03-11 15:00 LABOUR CONTRACT FOR CARRYING OUT THE W/J , etc.   0.00 Single
306 HVF 0811588 04/03/2010 2010-03-30 12:00 2010-03-30 15:00 MOTOR ELECTRIC,FR:132MAD,4KW,IP:54,17.3A , etc.   0.00 Single
307 HVF 0811589 04/03/2010 2010-03-30 12:00 2010-03-30 15:00 BRAKE LINER FERODO WITH BRASS WIRE , etc.   0.00 Single
308 HVF 0811590 04/03/2010 2010-03-30 12:00 2010-03-30 15:00 COLOUR MONITOR , etc.   0.00 Single
309 HVF 0811592 04/03/2010 2010-03-30 12:00 2010-03-30 15:00 SINGLE PHASE OVER CURRENT RELAY , etc.   0.00 Single
310 HVF 0811593 04/03/2010 2010-03-30 12:00 2010-03-30 15:00 SIEMENS FAST ACTING SEMICONDUCTOR FUSE , etc.   0.00 Single
311 OFAJ SS2290184 04/03/2010 2010-03-12 14:00 2010-03-12 15:00 TEMPOR.OBSERVATION POST AT BALASORE   0.00 Single
312 OFAJ SS2290187 04/03/2010 2010-03-26 14:00 2010-03-26 15:00 PARTED BILLET.F/498C &SPECN.F-466 H   0.00 Single
313 OFAJ TS2290141 04/03/2010 2010-04-07 14:00 2010-04-07 15:00 CONC. GAUGE TO DRG. NO. FS/G-1296 A, CONC. GAUGE TO DRG. NO. FS/G-73 B., PLUG GAUGE TO DRG. NO. FS/G-268 A., PLUNGER GAUGE TO DRG.NO.FS/G-1182 B, POSITION GAUGE TO DRG. NO. FS/G-691, POSITION GAUGE TO   0.00 Single
314 HVF 0409551 03/03/2010 2010-03-24 12:00 2010-03-24 15:00 FILTER , etc.   0.00 Single
315 OFAJ RS2290436 03/03/2010 2010-03-30 14:00 2010-03-30 15:00 HYD.CHILLER UNIT CAP: 6000 KCAL/HR.   0.00 Single
316 OFAJ RS2290437 03/03/2010 2010-03-30 14:00 2010-03-30 15:00 IMPELLER FOR COOLANT PUMP   0.00 Single
317 OFAJ TS2290139 03/03/2010 2010-04-07 14:00 2010-04-07 15:00 ECCENTRI.MEASURING GAUGE FS/G-5060C, SC.RING GAUGE TO DRG.NO FSG-5035'A'   0.00 Single
318 OFAJ TS2290140 03/03/2010 2010-04-07 14:00 2010-04-07 15:00 INDICATOR GAUGE TO DRG.NO.FS/G-1045, PLUG GAUGE TO DRG. NO. FS/G-1041., PLUG GAUGE TO DRG. NO. FS/G-5498., PLUG GAUGE TO DRG. NO. FS/G-5499 A., PLUNGER GAUGE TO DRG. NO. FS/G-1453   0.00 Single
319 HVF 0509743 02/03/2010 2010-03-23 12:00 2010-03-23 15:00 PRE-PRINTED FILE COVER FOR ID/DD SECTION , etc.   0.00 Single
320 HVF 0509744 02/03/2010 2010-03-23 12:00 2010-03-23 15:00 PRE-PRINTED FILE COVER FOR MSP SECTION , etc.   0.00 Single
321 HVF 0509745 02/03/2010 2010-03-23 12:00 2010-03-23 15:00 WONDER - "X" , etc.   0.00 Single
322 HVF 0701601 02/03/2010 2010-03-25 12:00 2010-03-25 15:00 WELDING ROD GR:XHD 646 L&T 3.20MM DIA , etc.   0.00 Single
323 OFAJ IS2290366 02/03/2010 2010-03-26 14:00 2010-03-26 15:00 DUST BIN,CAP-80LTR.BLUE/RED/GREEN/Y   0.00 Single
324 OFAJ SS2290183 02/03/2010 2010-03-26 14:00 2010-03-26 15:00 C.INSERT ISO CNMG 120408-PF GC4225, C.INSERT ISO VBMT160404-PF,GC4225, T. H. SVJBR 2525 -M-16   0.00 Single
325 OFDR 2009000866 02/03/2010 2010-06-14 14:30 2010-06-14 15:00 1. REPAIRING OF EXISTING BURNER ASSY.   2.00 Single
326 OFDR 2009000867 02/03/2010 2010-04-22 14:30 2010-04-22 15:00 1. BURNER ASSEMBELY FOR 2000 KGS/HR.   2.00 Single